sensor_id;sensor_type;location;lat;lon;timestamp;temperature;humidity
25360;DHT22;13311;51.386;0.016;2022-08-21T00:03:43;20.90;82.80
25360;DHT22;13311;51.386;0.016;2022-08-21T00:08:45;20.80;83.00
25360;DHT22;13311;51.386;0.016;2022-08-21T00:13:45;20.80;82.90
25360;DHT22;13311;51.386;0.016;2022-08-21T00:18:46;20.80;83.60
25360;DHT22;13311;51.386;0.016;2022-08-21T00:23:47;20.80;83.70
25360;DHT22;13311;51.386;0.016;2022-08-21T00:28:48;20.70;84.60
25360;DHT22;13311;51.386;0.016;2022-08-21T00:33:49;20.70;84.20
25360;DHT22;13311;51.386;0.016;2022-08-21T00:38:50;20.70;84.20
25360;DHT22;13311;51.386;0.016;2022-08-21T00:43:51;20.60;84.60
25360;DHT22;13311;51.386;0.016;2022-08-21T00:48:52;20.50;85.20
25360;DHT22;13311;51.386;0.016;2022-08-21T00:53:56;20.50;85.00
25360;DHT22;13311;51.386;0.016;2022-08-21T00:58:59;20.50;85.60
25360;DHT22;13311;51.386;0.016;2022-08-21T01:04:00;20.40;86.00
25360;DHT22;13311;51.386;0.016;2022-08-21T01:09:02;20.30;86.30
25360;DHT22;13311;51.386;0.016;2022-08-21T01:14:03;20.30;86.60
25360;DHT22;13311;51.386;0.016;2022-08-21T01:19:04;20.20;86.80
25360;DHT22;13311;51.386;0.016;2022-08-21T01:24:07;20.20;87.10
25360;DHT22;13311;51.386;0.016;2022-08-21T01:29:14;20.10;87.30
25360;DHT22;13311;51.386;0.016;2022-08-21T01:34:37;20.10;87.60
25360;DHT22;13311;51.386;0.016;2022-08-21T01:39:42;20.10;87.80
25360;DHT22;13311;51.386;0.016;2022-08-21T01:44:43;20.10;87.80
25360;DHT22;13311;51.386;0.016;2022-08-21T01:49:45;20.00;88.10
25360;DHT22;13311;51.386;0.016;2022-08-21T01:54:46;20.00;88.10
25360;DHT22;13311;51.386;0.016;2022-08-21T01:59:47;20.00;88.30
25360;DHT22;13311;51.386;0.016;2022-08-21T02:04:47;20.00;88.50
25360;DHT22;13311;51.386;0.016;2022-08-21T02:09:48;20.00;88.30
25360;DHT22;13311;51.386;0.016;2022-08-21T02:14:49;20.00;88.70
25360;DHT22;13311;51.386;0.016;2022-08-21T02:19:50;19.90;88.80
25360;DHT22;13311;51.386;0.016;2022-08-21T02:24:51;19.90;89.30
25360;DHT22;13311;51.386;0.016;2022-08-21T02:29:51;19.80;89.70
25360;DHT22;13311;51.386;0.016;2022-08-21T02:34:52;19.70;90.00
25360;DHT22;13311;51.386;0.016;2022-08-21T02:39:53;19.70;90.20
25360;DHT22;13311;51.386;0.016;2022-08-21T02:44:54;19.60;90.20
25360;DHT22;13311;51.386;0.016;2022-08-21T02:49:55;19.70;90.10
25360;DHT22;13311;51.386;0.016;2022-08-21T02:54:55;19.70;90.20
25360;DHT22;13311;51.386;0.016;2022-08-21T02:59:56;19.60;90.30
25360;DHT22;13311;51.386;0.016;2022-08-21T03:04:57;19.70;90.20
25360;DHT22;13311;51.386;0.016;2022-08-21T03:09:58;19.70;90.20
25360;DHT22;13311;51.386;0.016;2022-08-21T03:14:59;19.60;90.20
25360;DHT22;13311;51.386;0.016;2022-08-21T03:20:00;19.60;90.30
25360;DHT22;13311;51.386;0.016;2022-08-21T03:25:01;19.50;90.50
25360;DHT22;13311;51.386;0.016;2022-08-21T03:30:05;19.40;90.80
25360;DHT22;13311;51.386;0.016;2022-08-21T03:35:07;19.30;90.80
25360;DHT22;13311;51.386;0.016;2022-08-21T03:40:16;19.40;90.70
25360;DHT22;13311;51.386;0.016;2022-08-21T03:45:18;19.20;90.90
25360;DHT22;13311;51.386;0.016;2022-08-21T03:50:19;19.20;91.10
25360;DHT22;13311;51.386;0.016;2022-08-21T03:55:21;19.10;91.30
25360;DHT22;13311;51.386;0.016;2022-08-21T04:00:23;19.00;91.60
25360;DHT22;13311;51.386;0.016;2022-08-21T04:05:24;19.00;91.70
25360;DHT22;13311;51.386;0.016;2022-08-21T04:10:31;19.00;91.60
25360;DHT22;13311;51.386;0.016;2022-08-21T04:15:34;19.00;91.40
25360;DHT22;13311;51.386;0.016;2022-08-21T04:20:36;19.00;91.50
25360;DHT22;13311;51.386;0.016;2022-08-21T04:25:37;19.00;91.70
25360;DHT22;13311;51.386;0.016;2022-08-21T04:30:37;18.90;91.90
25360;DHT22;13311;51.386;0.016;2022-08-21T04:35:38;18.90;91.80
25360;DHT22;13311;51.386;0.016;2022-08-21T04:40:39;18.90;92.00
25360;DHT22;13311;51.386;0.016;2022-08-21T04:45:43;18.80;92.20
25360;DHT22;13311;51.386;0.016;2022-08-21T04:56:41;18.90;92.10
25360;DHT22;13311;51.386;0.016;2022-08-21T05:01:45;19.00;91.90
25360;DHT22;13311;51.386;0.016;2022-08-21T05:06:46;18.90;91.80
25360;DHT22;13311;51.386;0.016;2022-08-21T05:11:49;18.90;92.00
25360;DHT22;13311;51.386;0.016;2022-08-21T05:16:51;18.80;92.00
25360;DHT22;13311;51.386;0.016;2022-08-21T05:21:52;18.70;92.20
25360;DHT22;13311;51.386;0.016;2022-08-21T05:26:53;18.70;92.30
25360;DHT22;13311;51.386;0.016;2022-08-21T05:31:54;18.70;92.20
25360;DHT22;13311;51.386;0.016;2022-08-21T05:36:55;18.70;92.30
25360;DHT22;13311;51.386;0.016;2022-08-21T05:41:55;18.70;92.20
25360;DHT22;13311;51.386;0.016;2022-08-21T05:47:03;18.80;92.10
25360;DHT22;13311;51.386;0.016;2022-08-21T05:52:08;18.90;92.10
25360;DHT22;13311;51.386;0.016;2022-08-21T05:57:09;18.90;92.00
25360;DHT22;13311;51.386;0.016;2022-08-21T06:02:10;19.00;92.00
25360;DHT22;13311;51.386;0.016;2022-08-21T06:07:11;19.10;92.00
25360;DHT22;13311;51.386;0.016;2022-08-21T06:12:13;19.20;92.20
25360;DHT22;13311;51.386;0.016;2022-08-21T06:17:14;19.40;91.70
25360;DHT22;13311;51.386;0.016;2022-08-21T06:22:15;19.70;91.30
25360;DHT22;13311;51.386;0.016;2022-08-21T06:27:16;19.80;91.10
25360;DHT22;13311;51.386;0.016;2022-08-21T06:32:18;20.00;90.80
25360;DHT22;13311;51.386;0.016;2022-08-21T06:37:18;20.10;90.40
25360;DHT22;13311;51.386;0.016;2022-08-21T06:42:19;20.20;90.30
25360;DHT22;13311;51.386;0.016;2022-08-21T06:47:20;20.30;90.20
25360;DHT22;13311;51.386;0.016;2022-08-21T06:52:21;20.40;90.00
25360;DHT22;13311;51.386;0.016;2022-08-21T06:57:21;20.60;89.80
25360;DHT22;13311;51.386;0.016;2022-08-21T07:02:22;20.80;88.00
25360;DHT22;13311;51.386;0.016;2022-08-21T07:07:23;21.00;87.40
25360;DHT22;13311;51.386;0.016;2022-08-21T07:12:24;21.20;86.40
25360;DHT22;13311;51.386;0.016;2022-08-21T07:17:26;21.30;86.40
25360;DHT22;13311;51.386;0.016;2022-08-21T07:22:27;21.50;85.30
25360;DHT22;13311;51.386;0.016;2022-08-21T07:27:27;21.80;83.50
25360;DHT22;13311;51.386;0.016;2022-08-21T07:32:28;22.20;81.50
25360;DHT22;13311;51.386;0.016;2022-08-21T07:37:29;22.40;80.40
25360;DHT22;13311;51.386;0.016;2022-08-21T07:42:30;22.50;79.70
25360;DHT22;13311;51.386;0.016;2022-08-21T07:47:32;22.40;79.80
25360;DHT22;13311;51.386;0.016;2022-08-21T07:52:33;22.60;77.70
25360;DHT22;13311;51.386;0.016;2022-08-21T07:57:34;22.50;78.40
25360;DHT22;13311;51.386;0.016;2022-08-21T08:02:35;22.60;77.90
25360;DHT22;13311;51.386;0.016;2022-08-21T08:07:36;22.80;77.40
25360;DHT22;13311;51.386;0.016;2022-08-21T08:12:39;23.00;76.60
25360;DHT22;13311;51.386;0.016;2022-08-21T08:17:41;23.00;75.90
25360;DHT22;13311;51.386;0.016;2022-08-21T08:22:42;23.00;76.70
25360;DHT22;13311;51.386;0.016;2022-08-21T08:27:43;23.00;76.10
25360;DHT22;13311;51.386;0.016;2022-08-21T08:32:44;23.20;74.70
25360;DHT22;13311;51.386;0.016;2022-08-21T08:37:46;23.40;73.80
25360;DHT22;13311;51.386;0.016;2022-08-21T08:42:47;23.40;73.60
25360;DHT22;13311;51.386;0.016;2022-08-21T08:48:00;23.50;71.70
25360;DHT22;13311;51.386;0.016;2022-08-21T08:53:14;23.60;71.10
25360;DHT22;13311;51.386;0.016;2022-08-21T08:58:23;23.40;72.10
25360;DHT22;13311;51.386;0.016;2022-08-21T09:03:27;23.50;72.10
25360;DHT22;13311;51.386;0.016;2022-08-21T09:08:52;23.60;71.50
25360;DHT22;13311;51.386;0.016;2022-08-21T09:14:20;23.70;71.30
25360;DHT22;13311;51.386;0.016;2022-08-21T09:19:43;24.00;69.40
25360;DHT22;13311;51.386;0.016;2022-08-21T09:25:15;24.40;70.40
25360;DHT22;13311;51.386;0.016;2022-08-21T09:30:31;25.00;67.30
25360;DHT22;13311;51.386;0.016;2022-08-21T09:35:33;25.30;65.00
25360;DHT22;13311;51.386;0.016;2022-08-21T09:40:45;25.80;64.30
25360;DHT22;13311;51.386;0.016;2022-08-21T09:45:49;26.10;63.30
25360;DHT22;13311;51.386;0.016;2022-08-21T09:50:51;26.20;63.00
25360;DHT22;13311;51.386;0.016;2022-08-21T09:55:54;26.50;62.90
25360;DHT22;13311;51.386;0.016;2022-08-21T10:01:18;26.60;62.60
25360;DHT22;13311;51.386;0.016;2022-08-21T10:06:26;26.70;61.50
25360;DHT22;13311;51.386;0.016;2022-08-21T10:11:28;26.90;61.40
25360;DHT22;13311;51.386;0.016;2022-08-21T10:16:47;27.20;60.40
25360;DHT22;13311;51.386;0.016;2022-08-21T10:32:41;28.00;56.80
25360;DHT22;13311;51.386;0.016;2022-08-21T10:48:50;28.20;57.10
25360;DHT22;13311;51.386;0.016;2022-08-21T10:59:38;28.10;56.70
25360;DHT22;13311;51.386;0.016;2022-08-21T11:10:25;28.00;56.50
25360;DHT22;13311;51.386;0.016;2022-08-21T11:26:40;27.80;58.10
25360;DHT22;13311;51.386;0.016;2022-08-21T11:42:27;27.60;58.10
25360;DHT22;13311;51.386;0.016;2022-08-21T11:47:53;27.50;58.30
25360;DHT22;13311;51.386;0.016;2022-08-21T12:03:16;27.30;58.80
25360;DHT22;13311;51.386;0.016;2022-08-21T12:13:39;27.30;58.10
25360;DHT22;13311;51.386;0.016;2022-08-21T12:18:42;27.30;59.20
25360;DHT22;13311;51.386;0.016;2022-08-21T12:29:32;27.30;59.50
25360;DHT22;13311;51.386;0.016;2022-08-21T12:34:48;27.30;61.50
25360;DHT22;13311;51.386;0.016;2022-08-21T12:39:52;27.30;59.80
25360;DHT22;13311;51.386;0.016;2022-08-21T12:45:03;27.30;57.40
25360;DHT22;13311;51.386;0.016;2022-08-21T12:55:51;27.60;60.20
25360;DHT22;13311;51.386;0.016;2022-08-21T13:01:21;27.60;59.90
25360;DHT22;13311;51.386;0.016;2022-08-21T13:06:26;27.80;58.00
25360;DHT22;13311;51.386;0.016;2022-08-21T13:11:31;28.00;59.50
25360;DHT22;13311;51.386;0.016;2022-08-21T13:16:32;28.00;56.00
25360;DHT22;13311;51.386;0.016;2022-08-21T13:21:38;28.10;58.50
25360;DHT22;13311;51.386;0.016;2022-08-21T13:26:40;28.20;51.80
25360;DHT22;13311;51.386;0.016;2022-08-21T13:31:47;28.10;52.50
25360;DHT22;13311;51.386;0.016;2022-08-21T13:36:54;28.10;50.60
25360;DHT22;13311;51.386;0.016;2022-08-21T13:42:00;28.30;56.80
25360;DHT22;13311;51.386;0.016;2022-08-21T13:47:04;28.40;55.10
25360;DHT22;13311;51.386;0.016;2022-08-21T13:52:15;28.50;51.30
25360;DHT22;13311;51.386;0.016;2022-08-21T13:57:24;28.40;53.90
25360;DHT22;13311;51.386;0.016;2022-08-21T14:02:39;28.40;50.80
25360;DHT22;13311;51.386;0.016;2022-08-21T14:07:42;28.50;56.00
25360;DHT22;13311;51.386;0.016;2022-08-21T14:12:49;28.70;55.50
25360;DHT22;13311;51.386;0.016;2022-08-21T14:17:52;28.60;52.00
25360;DHT22;13311;51.386;0.016;2022-08-21T14:22:53;28.70;56.40
25360;DHT22;13311;51.386;0.016;2022-08-21T14:28:01;28.60;54.30
25360;DHT22;13311;51.386;0.016;2022-08-21T14:33:30;28.70;57.40
25360;DHT22;13311;51.386;0.016;2022-08-21T14:38:35;28.60;54.80
25360;DHT22;13311;51.386;0.016;2022-08-21T14:43:38;28.50;56.20
25360;DHT22;13311;51.386;0.016;2022-08-21T14:48:39;28.50;55.40
25360;DHT22;13311;51.386;0.016;2022-08-21T14:53:40;28.70;57.60
25360;DHT22;13311;51.386;0.016;2022-08-21T14:58:43;28.40;51.90
25360;DHT22;13311;51.386;0.016;2022-08-21T15:03:46;28.00;51.50
25360;DHT22;13311;51.386;0.016;2022-08-21T15:08:48;28.00;51.40
25360;DHT22;13311;51.386;0.016;2022-08-21T15:13:55;27.90;50.80
25360;DHT22;13311;51.386;0.016;2022-08-21T15:18:57;27.50;50.90
25360;DHT22;13311;51.386;0.016;2022-08-21T15:23:58;27.10;51.70
25360;DHT22;13311;51.386;0.016;2022-08-21T15:28:59;27.30;52.10
25360;DHT22;13311;51.386;0.016;2022-08-21T15:34:01;27.50;50.70
25360;DHT22;13311;51.386;0.016;2022-08-21T15:39:02;27.50;49.60
25360;DHT22;13311;51.386;0.016;2022-08-21T15:44:03;27.50;51.50
25360;DHT22;13311;51.386;0.016;2022-08-21T15:49:04;27.80;53.40
25360;DHT22;13311;51.386;0.016;2022-08-21T15:54:05;28.00;51.00
25360;DHT22;13311;51.386;0.016;2022-08-21T15:59:21;27.90;49.90
25360;DHT22;13311;51.386;0.016;2022-08-21T16:04:25;27.90;51.00
25360;DHT22;13311;51.386;0.016;2022-08-21T16:09:26;27.70;49.70
25360;DHT22;13311;51.386;0.016;2022-08-21T16:14:29;27.30;50.50
25360;DHT22;13311;51.386;0.016;2022-08-21T16:19:31;27.20;51.30
25360;DHT22;13311;51.386;0.016;2022-08-21T16:24:31;27.30;50.50
25360;DHT22;13311;51.386;0.016;2022-08-21T16:29:35;27.50;51.50
25360;DHT22;13311;51.386;0.016;2022-08-21T16:34:39;27.30;50.00
25360;DHT22;13311;51.386;0.016;2022-08-21T16:39:44;27.10;50.80
25360;DHT22;13311;51.386;0.016;2022-08-21T16:44:45;26.90;52.00
25360;DHT22;13311;51.386;0.016;2022-08-21T16:49:46;26.80;52.30
25360;DHT22;13311;51.386;0.016;2022-08-21T16:54:48;26.90;52.00
25360;DHT22;13311;51.386;0.016;2022-08-21T16:59:48;26.80;51.80
25360;DHT22;13311;51.386;0.016;2022-08-21T17:04:49;26.80;52.30
25360;DHT22;13311;51.386;0.016;2022-08-21T17:09:50;26.50;56.70
25360;DHT22;13311;51.386;0.016;2022-08-21T17:14:51;26.10;58.50
25360;DHT22;13311;51.386;0.016;2022-08-21T17:19:52;25.80;59.20
25360;DHT22;13311;51.386;0.016;2022-08-21T17:24:53;25.70;59.90
25360;DHT22;13311;51.386;0.016;2022-08-21T17:29:54;25.60;60.40
25360;DHT22;13311;51.386;0.016;2022-08-21T17:34:56;25.50;60.40
25360;DHT22;13311;51.386;0.016;2022-08-21T17:39:57;25.50;61.50
25360;DHT22;13311;51.386;0.016;2022-08-21T17:44:58;25.50;61.40
25360;DHT22;13311;51.386;0.016;2022-08-21T17:49:58;25.30;61.90
25360;DHT22;13311;51.386;0.016;2022-08-21T17:54:59;25.40;62.00
25360;DHT22;13311;51.386;0.016;2022-08-21T18:00:00;25.30;62.40
25360;DHT22;13311;51.386;0.016;2022-08-21T18:05:05;25.40;62.60
25360;DHT22;13311;51.386;0.016;2022-08-21T18:10:10;25.30;62.90
25360;DHT22;13311;51.386;0.016;2022-08-21T18:15:15;25.10;64.00
25360;DHT22;13311;51.386;0.016;2022-08-21T18:20:20;24.70;65.70
25360;DHT22;13311;51.386;0.016;2022-08-21T18:25:22;24.60;66.30
25360;DHT22;13311;51.386;0.016;2022-08-21T18:30:23;24.60;66.70
25360;DHT22;13311;51.386;0.016;2022-08-21T18:35:24;24.60;66.40
25360;DHT22;13311;51.386;0.016;2022-08-21T18:40:25;24.60;66.90
25360;DHT22;13311;51.386;0.016;2022-08-21T18:45:26;24.50;67.20
25360;DHT22;13311;51.386;0.016;2022-08-21T18:50:27;24.50;67.00
25360;DHT22;13311;51.386;0.016;2022-08-21T18:55:29;24.40;67.20
25360;DHT22;13311;51.386;0.016;2022-08-21T19:00:34;24.40;67.60
25360;DHT22;13311;51.386;0.016;2022-08-21T19:05:37;24.30;68.00
25360;DHT22;13311;51.386;0.016;2022-08-21T19:10:42;24.30;68.10
25360;DHT22;13311;51.386;0.016;2022-08-21T19:15:46;24.30;68.40
25360;DHT22;13311;51.386;0.016;2022-08-21T19:20:50;24.30;68.80
25360;DHT22;13311;51.386;0.016;2022-08-21T19:25:52;24.10;69.70
25360;DHT22;13311;51.386;0.016;2022-08-21T19:31:01;24.00;70.20
25360;DHT22;13311;51.386;0.016;2022-08-21T19:36:06;23.90;70.70
25360;DHT22;13311;51.386;0.016;2022-08-21T19:41:10;23.90;71.00
25360;DHT22;13311;51.386;0.016;2022-08-21T19:46:17;23.80;71.50
25360;DHT22;13311;51.386;0.016;2022-08-21T19:51:24;23.70;72.20
25360;DHT22;13311;51.386;0.016;2022-08-21T19:56:27;23.60;72.50
25360;DHT22;13311;51.386;0.016;2022-08-21T20:01:29;23.60;73.00
25360;DHT22;13311;51.386;0.016;2022-08-21T20:06:30;23.50;73.20
25360;DHT22;13311;51.386;0.016;2022-08-21T20:11:37;23.40;73.70
25360;DHT22;13311;51.386;0.016;2022-08-21T20:16:40;23.20;74.10
25360;DHT22;13311;51.386;0.016;2022-08-21T20:21:42;23.10;74.40
25360;DHT22;13311;51.386;0.016;2022-08-21T20:26:44;22.90;74.60
25360;DHT22;13311;51.386;0.016;2022-08-21T20:31:45;22.80;75.00
25360;DHT22;13311;51.386;0.016;2022-08-21T20:36:46;22.70;75.50
25360;DHT22;13311;51.386;0.016;2022-08-21T20:41:47;22.50;75.50
25360;DHT22;13311;51.386;0.016;2022-08-21T20:46:48;22.50;75.90
25360;DHT22;13311;51.386;0.016;2022-08-21T20:51:51;22.40;75.90
25360;DHT22;13311;51.386;0.016;2022-08-21T21:07:44;22.40;75.80
25360;DHT22;13311;51.386;0.016;2022-08-21T21:18:47;22.20;76.20
25360;DHT22;13311;51.386;0.016;2022-08-21T21:24:12;22.30;76.00
25360;DHT22;13311;51.386;0.016;2022-08-21T21:29:38;22.30;75.90
25360;DHT22;13311;51.386;0.016;2022-08-21T21:34:44;22.30;76.10
25360;DHT22;13311;51.386;0.016;2022-08-21T21:40:19;22.30;76.20
25360;DHT22;13311;51.386;0.016;2022-08-21T21:51:33;22.10;76.90
25360;DHT22;13311;51.386;0.016;2022-08-21T22:08:27;21.80;77.50
25360;DHT22;13311;51.386;0.016;2022-08-21T22:13:59;21.70;78.10
25360;DHT22;13311;51.386;0.016;2022-08-21T22:19:13;21.60;78.00
25360;DHT22;13311;51.386;0.016;2022-08-21T22:24:26;21.60;78.20
25360;DHT22;13311;51.386;0.016;2022-08-21T22:34:59;21.40;78.70
25360;DHT22;13311;51.386;0.016;2022-08-21T22:40:04;21.40;78.80
25360;DHT22;13311;51.386;0.016;2022-08-21T22:45:08;21.20;79.30
25360;DHT22;13311;51.386;0.016;2022-08-21T22:55:53;20.90;80.50
25360;DHT22;13311;51.386;0.016;2022-08-21T23:01:04;20.80;80.80
25360;DHT22;13311;51.386;0.016;2022-08-21T23:06:32;20.70;81.40
25360;DHT22;13311;51.386;0.016;2022-08-21T23:11:43;20.50;81.40
25360;DHT22;13311;51.386;0.016;2022-08-21T23:17:06;20.40;81.90
25360;DHT22;13311;51.386;0.016;2022-08-21T23:28:09;20.30;82.70
25360;DHT22;13311;51.386;0.016;2022-08-21T23:33:42;20.30;82.30
25360;DHT22;13311;51.386;0.016;2022-08-21T23:39:31;20.30;82.20
25360;DHT22;13311;51.386;0.016;2022-08-21T23:50:50;20.30;82.50
